sensor_id;sensor_type;location;lat;lon;timestamp;P1;durP1;ratioP1;P2;durP2;ratioP2
30307;SDS011;17114;52.314;8.910;2023-04-24T00:00:40;4.50;;;1.10;;
30307;SDS011;17114;52.314;8.910;2023-04-24T00:03:07;0.80;;;0.80;;
30307;SDS011;17114;52.314;8.910;2023-04-24T00:05:34;2.65;;;1.02;;
30307;SDS011;17114;52.314;8.910;2023-04-24T00:08:01;2.15;;;0.93;;
30307;SDS011;17114;52.314;8.910;2023-04-24T00:10:28;0.93;;;0.90;;
30307;SDS011;17114;52.314;8.910;2023-04-24T00:12:56;1.40;;;1.00;;
30307;SDS011;17114;52.314;8.910;2023-04-24T00:15:23;1.00;;;0.90;;
30307;SDS011;17114;52.314;8.910;2023-04-24T00:17:50;1.00;;;1.00;;
30307;SDS011;17114;52.314;8.910;2023-04-24T00:20:18;2.22;;;1.00;;
30307;SDS011;17114;52.314;8.910;2023-04-24T00:22:45;1.38;;;1.00;;
30307;SDS011;17114;52.314;8.910;2023-04-24T00:25:12;1.13;;;0.98;;
30307;SDS011;17114;52.314;8.910;2023-04-24T00:27:39;1.60;;;0.98;;
30307;SDS011;17114;52.314;8.910;2023-04-24T00:30:06;0.80;;;0.70;;
30307;SDS011;17114;52.314;8.910;2023-04-24T00:32:33;2.15;;;1.17;;
30307;SDS011;17114;52.314;8.910;2023-04-24T00:35:00;0.75;;;0.70;;
30307;SDS011;17114;52.314;8.910;2023-04-24T00:37:28;0.98;;;0.70;;
30307;SDS011;17114;52.314;8.910;2023-04-24T00:39:55;1.48;;;0.70;;
30307;SDS011;17114;52.314;8.910;2023-04-24T00:42:22;3.17;;;0.70;;
30307;SDS011;17114;52.314;8.910;2023-04-24T00:44:49;0.93;;;0.60;;
30307;SDS011;17114;52.314;8.910;2023-04-24T00:47:17;0.52;;;0.50;;
30307;SDS011;17114;52.314;8.910;2023-04-24T00:49:46;0.70;;;0.70;;
30307;SDS011;17114;52.314;8.910;2023-04-24T00:52:12;1.38;;;0.80;;
30307;SDS011;17114;52.314;8.910;2023-04-24T00:54:44;1.48;;;0.60;;
30307;SDS011;17114;52.314;8.910;2023-04-24T00:57:12;0.60;;;0.60;;
30307;SDS011;17114;52.314;8.910;2023-04-24T00:59:41;0.80;;;0.50;;
30307;SDS011;17114;52.314;8.910;2023-04-24T01:02:09;1.83;;;0.70;;
30307;SDS011;17114;52.314;8.910;2023-04-24T01:04:37;1.02;;;0.80;;
30307;SDS011;17114;52.314;8.910;2023-04-24T01:07:05;0.80;;;0.60;;
30307;SDS011;17114;52.314;8.910;2023-04-24T01:09:37;0.85;;;0.85;;
30307;SDS011;17114;52.314;8.910;2023-04-24T01:12:06;1.55;;;0.80;;
30307;SDS011;17114;52.314;8.910;2023-04-24T01:14:33;1.73;;;0.70;;
30307;SDS011;17114;52.314;8.910;2023-04-24T01:17:00;0.77;;;0.75;;
30307;SDS011;17114;52.314;8.910;2023-04-24T01:19:27;0.93;;;0.68;;
30307;SDS011;17114;52.314;8.910;2023-04-24T01:21:54;2.60;;;0.90;;
30307;SDS011;17114;52.314;8.910;2023-04-24T01:24:24;3.40;;;1.10;;
30307;SDS011;17114;52.314;8.910;2023-04-24T01:26:51;3.00;;;1.15;;
30307;SDS011;17114;52.314;8.910;2023-04-24T01:29:21;1.60;;;0.80;;
30307;SDS011;17114;52.314;8.910;2023-04-24T01:31:49;0.60;;;0.52;;
30307;SDS011;17114;52.314;8.910;2023-04-24T01:34:16;0.68;;;0.68;;
30307;SDS011;17114;52.314;8.910;2023-04-24T01:36:45;1.23;;;0.80;;
30307;SDS011;17114;52.314;8.910;2023-04-24T01:39:12;3.80;;;1.02;;
30307;SDS011;17114;52.314;8.910;2023-04-24T01:41:40;2.03;;;0.88;;
30307;SDS011;17114;52.314;8.910;2023-04-24T01:44:07;1.25;;;0.90;;
30307;SDS011;17114;52.314;8.910;2023-04-24T01:46:33;1.15;;;0.82;;
30307;SDS011;17114;52.314;8.910;2023-04-24T01:49:02;2.45;;;0.70;;
30307;SDS011;17114;52.314;8.910;2023-04-24T01:51:32;1.10;;;0.95;;
30307;SDS011;17114;52.314;8.910;2023-04-24T01:53:59;1.02;;;0.70;;
30307;SDS011;17114;52.314;8.910;2023-04-24T01:56:26;1.92;;;0.88;;
30307;SDS011;17114;52.314;8.910;2023-04-24T01:58:56;1.63;;;0.80;;
30307;SDS011;17114;52.314;8.910;2023-04-24T02:01:24;2.38;;;0.80;;
30307;SDS011;17114;52.314;8.910;2023-04-24T02:03:51;0.82;;;0.80;;
30307;SDS011;17114;52.314;8.910;2023-04-24T02:06:19;1.02;;;0.80;;
30307;SDS011;17114;52.314;8.910;2023-04-24T02:08:46;1.40;;;0.93;;
30307;SDS011;17114;52.314;8.910;2023-04-24T02:11:13;1.13;;;0.90;;
30307;SDS011;17114;52.314;8.910;2023-04-24T02:13:39;1.67;;;0.88;;
30307;SDS011;17114;52.314;8.910;2023-04-24T02:16:06;1.75;;;1.20;;
30307;SDS011;17114;52.314;8.910;2023-04-24T02:18:33;0.80;;;0.80;;
30307;SDS011;17114;52.314;8.910;2023-04-24T02:21:00;1.95;;;1.10;;
30307;SDS011;17114;52.314;8.910;2023-04-24T02:23:27;1.15;;;1.00;;
30307;SDS011;17114;52.314;8.910;2023-04-24T02:25:54;2.70;;;1.20;;
30307;SDS011;17114;52.314;8.910;2023-04-24T02:28:21;1.70;;;1.00;;
30307;SDS011;17114;52.314;8.910;2023-04-24T02:30:49;1.60;;;1.10;;
30307;SDS011;17114;52.314;8.910;2023-04-24T02:33:17;2.08;;;0.82;;
30307;SDS011;17114;52.314;8.910;2023-04-24T02:35:44;1.35;;;0.90;;
30307;SDS011;17114;52.314;8.910;2023-04-24T02:38:11;1.10;;;1.00;;
30307;SDS011;17114;52.314;8.910;2023-04-24T02:40:38;1.60;;;0.95;;
30307;SDS011;17114;52.314;8.910;2023-04-24T02:43:05;1.33;;;1.02;;
30307;SDS011;17114;52.314;8.910;2023-04-24T02:45:31;2.72;;;1.27;;
30307;SDS011;17114;52.314;8.910;2023-04-24T02:48:00;1.30;;;1.20;;
30307;SDS011;17114;52.314;8.910;2023-04-24T02:50:27;1.05;;;0.98;;
30307;SDS011;17114;52.314;8.910;2023-04-24T02:52:54;2.70;;;1.30;;
30307;SDS011;17114;52.314;8.910;2023-04-24T02:55:21;1.23;;;1.05;;
30307;SDS011;17114;52.314;8.910;2023-04-24T02:57:48;2.15;;;1.40;;
30307;SDS011;17114;52.314;8.910;2023-04-24T03:00:15;2.47;;;1.55;;
30307;SDS011;17114;52.314;8.910;2023-04-24T03:02:42;2.50;;;1.58;;
30307;SDS011;17114;52.314;8.910;2023-04-24T03:05:09;2.00;;;1.45;;
30307;SDS011;17114;52.314;8.910;2023-04-24T03:07:38;3.47;;;2.00;;
30307;SDS011;17114;52.314;8.910;2023-04-24T03:10:05;2.25;;;1.85;;
30307;SDS011;17114;52.314;8.910;2023-04-24T03:12:33;2.25;;;1.60;;
30307;SDS011;17114;52.314;8.910;2023-04-24T03:15:00;2.00;;;1.70;;
30307;SDS011;17114;52.314;8.910;2023-04-24T03:17:27;2.70;;;1.75;;
30307;SDS011;17114;52.314;8.910;2023-04-24T03:19:54;3.28;;;2.08;;
30307;SDS011;17114;52.314;8.910;2023-04-24T03:22:21;3.88;;;1.98;;
30307;SDS011;17114;52.314;8.910;2023-04-24T03:24:48;3.00;;;2.03;;
30307;SDS011;17114;52.314;8.910;2023-04-24T03:27:14;3.28;;;2.05;;
30307;SDS011;17114;52.314;8.910;2023-04-24T03:29:41;2.83;;;1.80;;
30307;SDS011;17114;52.314;8.910;2023-04-24T03:32:08;3.45;;;1.70;;
30307;SDS011;17114;52.314;8.910;2023-04-24T03:34:35;2.35;;;1.63;;
30307;SDS011;17114;52.314;8.910;2023-04-24T03:37:02;2.90;;;1.58;;
30307;SDS011;17114;52.314;8.910;2023-04-24T03:39:29;2.40;;;1.50;;
30307;SDS011;17114;52.314;8.910;2023-04-24T03:41:56;3.38;;;1.98;;
30307;SDS011;17114;52.314;8.910;2023-04-24T03:44:23;4.93;;;1.65;;
30307;SDS011;17114;52.314;8.910;2023-04-24T03:46:50;2.08;;;1.60;;
30307;SDS011;17114;52.314;8.910;2023-04-24T03:49:17;2.45;;;1.55;;
30307;SDS011;17114;52.314;8.910;2023-04-24T03:51:44;2.00;;;1.40;;
30307;SDS011;17114;52.314;8.910;2023-04-24T03:54:11;2.03;;;1.52;;
30307;SDS011;17114;52.314;8.910;2023-04-24T03:56:37;2.47;;;1.50;;
30307;SDS011;17114;52.314;8.910;2023-04-24T03:59:04;2.25;;;1.50;;
30307;SDS011;17114;52.314;8.910;2023-04-24T04:01:32;1.77;;;1.50;;
30307;SDS011;17114;52.314;8.910;2023-04-24T04:03:58;3.47;;;1.55;;
30307;SDS011;17114;52.314;8.910;2023-04-24T04:06:25;1.90;;;1.52;;
30307;SDS011;17114;52.314;8.910;2023-04-24T04:08:53;3.47;;;1.40;;
30307;SDS011;17114;52.314;8.910;2023-04-24T04:11:20;2.00;;;1.27;;
30307;SDS011;17114;52.314;8.910;2023-04-24T04:13:47;4.72;;;1.42;;
30307;SDS011;17114;52.314;8.910;2023-04-24T04:16:14;2.83;;;1.55;;
30307;SDS011;17114;52.314;8.910;2023-04-24T04:18:43;2.38;;;1.40;;
30307;SDS011;17114;52.314;8.910;2023-04-24T04:21:11;2.15;;;1.50;;
30307;SDS011;17114;52.314;8.910;2023-04-24T04:23:38;4.88;;;1.42;;
30307;SDS011;17114;52.314;8.910;2023-04-24T04:26:06;2.70;;;1.50;;
30307;SDS011;17114;52.314;8.910;2023-04-24T04:28:34;3.17;;;1.60;;
30307;SDS011;17114;52.314;8.910;2023-04-24T04:31:01;1.80;;;1.50;;
30307;SDS011;17114;52.314;8.910;2023-04-24T04:33:28;5.90;;;2.00;;
30307;SDS011;17114;52.314;8.910;2023-04-24T04:35:55;1.85;;;1.45;;
30307;SDS011;17114;52.314;8.910;2023-04-24T04:38:23;3.08;;;1.60;;
30307;SDS011;17114;52.314;8.910;2023-04-24T04:40:50;3.03;;;1.83;;
30307;SDS011;17114;52.314;8.910;2023-04-24T04:43:17;3.47;;;1.73;;
30307;SDS011;17114;52.314;8.910;2023-04-24T04:45:44;3.45;;;1.65;;
30307;SDS011;17114;52.314;8.910;2023-04-24T04:48:11;2.45;;;2.03;;
30307;SDS011;17114;52.314;8.910;2023-04-24T04:50:40;3.40;;;1.70;;
30307;SDS011;17114;52.314;8.910;2023-04-24T04:53:06;4.47;;;3.00;;
30307;SDS011;17114;52.314;8.910;2023-04-24T04:55:33;2.55;;;1.85;;
30307;SDS011;17114;52.314;8.910;2023-04-24T04:58:01;2.40;;;1.70;;
30307;SDS011;17114;52.314;8.910;2023-04-24T05:00:28;4.20;;;1.95;;
30307;SDS011;17114;52.314;8.910;2023-04-24T05:03:01;4.85;;;2.15;;
30307;SDS011;17114;52.314;8.910;2023-04-24T05:05:44;3.20;;;2.05;;
30307;SDS011;17114;52.314;8.910;2023-04-24T05:08:12;3.13;;;2.35;;
30307;SDS011;17114;52.314;8.910;2023-04-24T05:10:52;3.75;;;2.42;;
30307;SDS011;17114;52.314;8.910;2023-04-24T05:13:19;3.30;;;2.55;;
30307;SDS011;17114;52.314;8.910;2023-04-24T05:15:57;3.47;;;2.70;;
30307;SDS011;17114;52.314;8.910;2023-04-24T05:18:25;3.63;;;2.78;;
30307;SDS011;17114;52.314;8.910;2023-04-24T05:20:52;5.07;;;2.92;;
30307;SDS011;17114;52.314;8.910;2023-04-24T05:23:18;3.03;;;2.63;;
30307;SDS011;17114;52.314;8.910;2023-04-24T05:25:45;4.40;;;3.35;;
30307;SDS011;17114;52.314;8.910;2023-04-24T05:28:12;7.20;;;3.80;;
30307;SDS011;17114;52.314;8.910;2023-04-24T05:30:39;5.38;;;3.83;;
30307;SDS011;17114;52.314;8.910;2023-04-24T05:33:06;5.68;;;4.32;;
30307;SDS011;17114;52.314;8.910;2023-04-24T05:35:34;5.65;;;3.42;;
30307;SDS011;17114;52.314;8.910;2023-04-24T05:38:01;6.53;;;4.50;;
30307;SDS011;17114;52.314;8.910;2023-04-24T05:40:29;6.68;;;5.40;;
30307;SDS011;17114;52.314;8.910;2023-04-24T05:42:56;8.85;;;5.70;;
30307;SDS011;17114;52.314;8.910;2023-04-24T05:45:23;9.50;;;6.75;;
30307;SDS011;17114;52.314;8.910;2023-04-24T05:47:49;9.50;;;6.80;;
30307;SDS011;17114;52.314;8.910;2023-04-24T05:50:19;10.13;;;7.75;;
30307;SDS011;17114;52.314;8.910;2023-04-24T05:52:46;10.90;;;7.72;;
30307;SDS011;17114;52.314;8.910;2023-04-24T05:55:12;10.75;;;7.60;;
30307;SDS011;17114;52.314;8.910;2023-04-24T05:57:39;12.30;;;8.07;;
30307;SDS011;17114;52.314;8.910;2023-04-24T06:00:07;14.43;;;9.65;;
30307;SDS011;17114;52.314;8.910;2023-04-24T06:02:34;13.48;;;8.77;;
30307;SDS011;17114;52.314;8.910;2023-04-24T06:05:02;13.48;;;9.32;;
30307;SDS011;17114;52.314;8.910;2023-04-24T06:07:29;13.95;;;8.73;;
30307;SDS011;17114;52.314;8.910;2023-04-24T06:09:56;15.60;;;9.98;;
30307;SDS011;17114;52.314;8.910;2023-04-24T06:12:23;15.40;;;9.77;;
30307;SDS011;17114;52.314;8.910;2023-04-24T06:14:52;14.55;;;9.95;;
30307;SDS011;17114;52.314;8.910;2023-04-24T06:17:18;17.67;;;9.40;;
30307;SDS011;17114;52.314;8.910;2023-04-24T06:19:45;15.75;;;10.30;;
30307;SDS011;17114;52.314;8.910;2023-04-24T06:22:13;16.30;;;10.40;;
30307;SDS011;17114;52.314;8.910;2023-04-24T06:24:40;15.68;;;9.85;;
30307;SDS011;17114;52.314;8.910;2023-04-24T06:27:07;14.82;;;9.52;;
30307;SDS011;17114;52.314;8.910;2023-04-24T06:29:35;18.75;;;10.13;;
30307;SDS011;17114;52.314;8.910;2023-04-24T06:32:02;14.00;;;9.10;;
30307;SDS011;17114;52.314;8.910;2023-04-24T06:34:29;17.38;;;10.00;;
30307;SDS011;17114;52.314;8.910;2023-04-24T06:36:57;15.07;;;9.95;;
30307;SDS011;17114;52.314;8.910;2023-04-24T06:39:24;15.95;;;10.45;;
30307;SDS011;17114;52.314;8.910;2023-04-24T06:41:51;15.70;;;9.82;;
30307;SDS011;17114;52.314;8.910;2023-04-24T06:44:18;18.48;;;10.38;;
30307;SDS011;17114;52.314;8.910;2023-04-24T06:46:45;19.15;;;11.02;;
30307;SDS011;17114;52.314;8.910;2023-04-24T06:49:13;17.88;;;11.65;;
30307;SDS011;17114;52.314;8.910;2023-04-24T06:51:42;16.75;;;10.32;;
30307;SDS011;17114;52.314;8.910;2023-04-24T06:54:10;16.38;;;11.07;;
30307;SDS011;17114;52.314;8.910;2023-04-24T06:56:36;23.13;;;11.18;;
30307;SDS011;17114;52.314;8.910;2023-04-24T06:59:03;15.85;;;11.48;;
30307;SDS011;17114;52.314;8.910;2023-04-24T07:01:31;19.27;;;12.18;;
30307;SDS011;17114;52.314;8.910;2023-04-24T07:03:58;16.27;;;10.68;;
30307;SDS011;17114;52.314;8.910;2023-04-24T07:06:25;17.70;;;10.65;;
30307;SDS011;17114;52.314;8.910;2023-04-24T07:08:53;15.77;;;10.82;;
30307;SDS011;17114;52.314;8.910;2023-04-24T07:11:20;17.85;;;10.82;;
30307;SDS011;17114;52.314;8.910;2023-04-24T07:13:48;19.48;;;11.20;;
30307;SDS011;17114;52.314;8.910;2023-04-24T07:16:15;16.10;;;11.77;;
30307;SDS011;17114;52.314;8.910;2023-04-24T07:18:42;17.65;;;11.38;;
30307;SDS011;17114;52.314;8.910;2023-04-24T07:21:09;18.50;;;11.63;;
30307;SDS011;17114;52.314;8.910;2023-04-24T07:23:37;15.60;;;10.98;;
30307;SDS011;17114;52.314;8.910;2023-04-24T07:26:04;14.48;;;11.23;;
30307;SDS011;17114;52.314;8.910;2023-04-24T07:28:31;20.23;;;11.73;;
30307;SDS011;17114;52.314;8.910;2023-04-24T07:30:58;21.33;;;11.75;;
30307;SDS011;17114;52.314;8.910;2023-04-24T07:33:26;19.63;;;12.73;;
30307;SDS011;17114;52.314;8.910;2023-04-24T07:35:53;18.73;;;12.00;;
30307;SDS011;17114;52.314;8.910;2023-04-24T07:38:20;16.77;;;12.05;;
30307;SDS011;17114;52.314;8.910;2023-04-24T07:40:48;19.40;;;11.10;;
30307;SDS011;17114;52.314;8.910;2023-04-24T07:43:15;17.27;;;11.80;;
30307;SDS011;17114;52.314;8.910;2023-04-24T07:45:42;18.50;;;12.10;;
30307;SDS011;17114;52.314;8.910;2023-04-24T07:48:09;17.10;;;12.40;;
30307;SDS011;17114;52.314;8.910;2023-04-24T07:50:36;21.20;;;12.00;;
30307;SDS011;17114;52.314;8.910;2023-04-24T07:53:03;18.70;;;11.73;;
30307;SDS011;17114;52.314;8.910;2023-04-24T07:55:31;17.33;;;11.95;;
30307;SDS011;17114;52.314;8.910;2023-04-24T07:57:58;19.25;;;11.93;;
30307;SDS011;17114;52.314;8.910;2023-04-24T08:00:25;16.23;;;12.52;;
30307;SDS011;17114;52.314;8.910;2023-04-24T08:02:52;21.52;;;13.40;;
30307;SDS011;17114;52.314;8.910;2023-04-24T08:05:19;20.98;;;12.57;;
30307;SDS011;17114;52.314;8.910;2023-04-24T08:07:47;17.45;;;11.98;;
30307;SDS011;17114;52.314;8.910;2023-04-24T08:10:16;16.45;;;11.00;;
30307;SDS011;17114;52.314;8.910;2023-04-24T08:12:43;17.65;;;11.15;;
30307;SDS011;17114;52.314;8.910;2023-04-24T08:15:10;18.33;;;11.95;;
30307;SDS011;17114;52.314;8.910;2023-04-24T08:17:37;17.83;;;11.20;;
30307;SDS011;17114;52.314;8.910;2023-04-24T08:20:04;14.55;;;10.65;;
30307;SDS011;17114;52.314;8.910;2023-04-24T08:22:36;16.08;;;10.18;;
30307;SDS011;17114;52.314;8.910;2023-04-24T08:25:03;14.38;;;9.88;;
30307;SDS011;17114;52.314;8.910;2023-04-24T08:27:30;15.02;;;10.15;;
30307;SDS011;17114;52.314;8.910;2023-04-24T08:30:00;16.58;;;10.30;;
30307;SDS011;17114;52.314;8.910;2023-04-24T08:32:27;13.88;;;8.93;;
30307;SDS011;17114;52.314;8.910;2023-04-24T08:34:55;11.07;;;8.50;;
30307;SDS011;17114;52.314;8.910;2023-04-24T08:37:23;12.27;;;8.45;;
30307;SDS011;17114;52.314;8.910;2023-04-24T08:39:50;13.27;;;8.43;;
30307;SDS011;17114;52.314;8.910;2023-04-24T08:42:17;12.93;;;7.78;;
30307;SDS011;17114;52.314;8.910;2023-04-24T08:44:45;10.60;;;7.78;;
30307;SDS011;17114;52.314;8.910;2023-04-24T08:47:15;12.88;;;7.50;;
30307;SDS011;17114;52.314;8.910;2023-04-24T08:49:42;11.55;;;7.25;;
30307;SDS011;17114;52.314;8.910;2023-04-24T08:52:10;8.98;;;6.85;;
30307;SDS011;17114;52.314;8.910;2023-04-24T08:54:39;9.35;;;6.93;;
30307;SDS011;17114;52.314;8.910;2023-04-24T08:57:06;10.05;;;6.75;;
30307;SDS011;17114;52.314;8.910;2023-04-24T08:59:35;9.02;;;6.28;;
30307;SDS011;17114;52.314;8.910;2023-04-24T09:02:04;8.80;;;6.30;;
30307;SDS011;17114;52.314;8.910;2023-04-24T09:04:31;8.15;;;5.93;;
30307;SDS011;17114;52.314;8.910;2023-04-24T09:07:00;6.97;;;5.93;;
30307;SDS011;17114;52.314;8.910;2023-04-24T09:09:29;11.10;;;6.30;;
30307;SDS011;17114;52.314;8.910;2023-04-24T09:11:57;7.45;;;5.68;;
30307;SDS011;17114;52.314;8.910;2023-04-24T09:14:25;7.47;;;5.55;;
30307;SDS011;17114;52.314;8.910;2023-04-24T09:16:54;6.78;;;5.43;;
30307;SDS011;17114;52.314;8.910;2023-04-24T09:19:21;8.20;;;6.13;;
30307;SDS011;17114;52.314;8.910;2023-04-24T09:21:48;8.18;;;5.97;;
30307;SDS011;17114;52.314;8.910;2023-04-24T09:24:16;9.00;;;5.75;;
30307;SDS011;17114;52.314;8.910;2023-04-24T09:26:46;7.55;;;4.68;;
30307;SDS011;17114;52.314;8.910;2023-04-24T09:29:17;6.38;;;4.13;;
30307;SDS011;17114;52.314;8.910;2023-04-24T09:31:45;4.70;;;3.78;;
30307;SDS011;17114;52.314;8.910;2023-04-24T09:34:12;5.95;;;3.92;;
30307;SDS011;17114;52.314;8.910;2023-04-24T09:36:40;4.65;;;3.95;;
30307;SDS011;17114;52.314;8.910;2023-04-24T09:39:09;4.47;;;3.40;;
30307;SDS011;17114;52.314;8.910;2023-04-24T09:41:51;3.83;;;3.42;;
30307;SDS011;17114;52.314;8.910;2023-04-24T09:44:26;5.10;;;3.28;;
30307;SDS011;17114;52.314;8.910;2023-04-24T09:46:55;3.92;;;3.30;;
30307;SDS011;17114;52.314;8.910;2023-04-24T09:51:52;3.65;;;3.30;;
30307;SDS011;17114;52.314;8.910;2023-04-24T09:54:38;3.90;;;3.50;;
30307;SDS011;17114;52.314;8.910;2023-04-24T09:57:09;4.53;;;3.20;;
30307;SDS011;17114;52.314;8.910;2023-04-24T09:59:38;3.63;;;3.15;;
30307;SDS011;17114;52.314;8.910;2023-04-24T10:02:19;6.05;;;3.10;;
30307;SDS011;17114;52.314;8.910;2023-04-24T10:04:54;3.38;;;2.97;;
30307;SDS011;17114;52.314;8.910;2023-04-24T10:07:26;3.47;;;2.85;;
30307;SDS011;17114;52.314;8.910;2023-04-24T10:09:53;4.53;;;2.92;;
30307;SDS011;17114;52.314;8.910;2023-04-24T10:12:21;3.78;;;3.10;;
30307;SDS011;17114;52.314;8.910;2023-04-24T10:14:49;2.78;;;2.38;;
30307;SDS011;17114;52.314;8.910;2023-04-24T10:17:16;2.95;;;2.65;;
30307;SDS011;17114;52.314;8.910;2023-04-24T10:19:45;4.00;;;2.30;;
30307;SDS011;17114;52.314;8.910;2023-04-24T10:22:13;3.10;;;2.63;;
30307;SDS011;17114;52.314;8.910;2023-04-24T10:24:42;3.78;;;2.88;;
30307;SDS011;17114;52.314;8.910;2023-04-24T10:27:10;4.40;;;2.72;;
30307;SDS011;17114;52.314;8.910;2023-04-24T10:29:39;3.33;;;2.50;;
30307;SDS011;17114;52.314;8.910;2023-04-24T10:32:07;3.72;;;2.60;;
30307;SDS011;17114;52.314;8.910;2023-04-24T10:34:35;4.65;;;2.50;;
30307;SDS011;17114;52.314;8.910;2023-04-24T10:37:02;2.85;;;2.30;;
30307;SDS011;17114;52.314;8.910;2023-04-24T10:39:30;3.13;;;2.35;;
30307;SDS011;17114;52.314;8.910;2023-04-24T10:41:59;3.15;;;2.33;;
30307;SDS011;17114;52.314;8.910;2023-04-24T10:44:27;3.45;;;2.13;;
30307;SDS011;17114;52.314;8.910;2023-04-24T10:47:03;3.20;;;2.13;;
30307;SDS011;17114;52.314;8.910;2023-04-24T10:49:30;3.92;;;2.38;;
30307;SDS011;17114;52.314;8.910;2023-04-24T10:52:02;3.90;;;2.63;;
30307;SDS011;17114;52.314;8.910;2023-04-24T10:59:47;2.30;;;1.83;;
30307;SDS011;17114;52.314;8.910;2023-04-24T11:02:38;2.10;;;1.77;;
30307;SDS011;17114;52.314;8.910;2023-04-24T11:05:16;3.03;;;2.47;;
30307;SDS011;17114;52.314;8.910;2023-04-24T11:13:24;3.15;;;1.90;;
30307;SDS011;17114;52.314;8.910;2023-04-24T11:18:43;3.88;;;2.90;;
30307;SDS011;17114;52.314;8.910;2023-04-24T11:21:17;3.92;;;2.80;;
30307;SDS011;17114;52.314;8.910;2023-04-24T11:23:45;4.07;;;3.42;;
30307;SDS011;17114;52.314;8.910;2023-04-24T11:26:14;7.22;;;4.10;;
30307;SDS011;17114;52.314;8.910;2023-04-24T11:29:07;4.10;;;3.70;;
30307;SDS011;17114;52.314;8.910;2023-04-24T11:31:44;5.43;;;4.47;;
30307;SDS011;17114;52.314;8.910;2023-04-24T11:34:15;4.75;;;4.35;;
30307;SDS011;17114;52.314;8.910;2023-04-24T11:36:44;4.50;;;4.10;;
30307;SDS011;17114;52.314;8.910;2023-04-24T11:39:14;4.35;;;3.85;;
30307;SDS011;17114;52.314;8.910;2023-04-24T11:41:41;5.20;;;4.32;;
30307;SDS011;17114;52.314;8.910;2023-04-24T11:44:09;4.68;;;3.47;;
30307;SDS011;17114;52.314;8.910;2023-04-24T11:46:37;5.85;;;4.05;;
30307;SDS011;17114;52.314;8.910;2023-04-24T11:49:07;5.97;;;4.18;;
30307;SDS011;17114;52.314;8.910;2023-04-24T11:51:34;5.20;;;4.70;;
30307;SDS011;17114;52.314;8.910;2023-04-24T11:54:17;5.55;;;5.05;;
30307;SDS011;17114;52.314;8.910;2023-04-24T11:56:45;5.72;;;4.30;;
30307;SDS011;17114;52.314;8.910;2023-04-24T11:59:13;6.55;;;4.63;;
30307;SDS011;17114;52.314;8.910;2023-04-24T12:01:47;5.82;;;5.32;;
30307;SDS011;17114;52.314;8.910;2023-04-24T12:04:15;7.73;;;5.93;;
30307;SDS011;17114;52.314;8.910;2023-04-24T12:07:00;6.78;;;6.05;;
30307;SDS011;17114;52.314;8.910;2023-04-24T12:09:28;7.60;;;6.07;;
30307;SDS011;17114;52.314;8.910;2023-04-24T12:11:56;8.10;;;6.25;;
30307;SDS011;17114;52.314;8.910;2023-04-24T12:14:23;6.43;;;5.82;;
30307;SDS011;17114;52.314;8.910;2023-04-24T12:16:50;6.60;;;5.90;;
30307;SDS011;17114;52.314;8.910;2023-04-24T12:19:21;5.53;;;5.00;;
30307;SDS011;17114;52.314;8.910;2023-04-24T12:21:59;4.75;;;3.97;;
30307;SDS011;17114;52.314;8.910;2023-04-24T12:24:27;3.75;;;3.33;;
30307;SDS011;17114;52.314;8.910;2023-04-24T12:26:54;3.47;;;3.17;;
30307;SDS011;17114;52.314;8.910;2023-04-24T12:29:22;3.92;;;3.53;;
30307;SDS011;17114;52.314;8.910;2023-04-24T12:31:50;4.03;;;3.38;;
30307;SDS011;17114;52.314;8.910;2023-04-24T12:34:21;4.13;;;2.97;;
30307;SDS011;17114;52.314;8.910;2023-04-24T12:36:49;3.25;;;1.83;;
30307;SDS011;17114;52.314;8.910;2023-04-24T12:39:17;2.35;;;1.88;;
30307;SDS011;17114;52.314;8.910;2023-04-24T12:41:55;1.90;;;1.70;;
30307;SDS011;17114;52.314;8.910;2023-04-24T12:44:31;2.95;;;1.73;;
30307;SDS011;17114;52.314;8.910;2023-04-24T12:47:01;3.15;;;2.00;;
30307;SDS011;17114;52.314;8.910;2023-04-24T12:49:29;2.20;;;1.75;;
30307;SDS011;17114;52.314;8.910;2023-04-24T12:51:57;2.70;;;1.83;;
30307;SDS011;17114;52.314;8.910;2023-04-24T12:54:24;2.67;;;1.70;;
30307;SDS011;17114;52.314;8.910;2023-04-24T12:56:51;3.05;;;1.83;;
30307;SDS011;17114;52.314;8.910;2023-04-24T12:59:18;3.03;;;1.88;;
30307;SDS011;17114;52.314;8.910;2023-04-24T13:01:45;4.28;;;2.70;;
30307;SDS011;17114;52.314;8.910;2023-04-24T13:04:16;2.75;;;2.20;;
30307;SDS011;17114;52.314;8.910;2023-04-24T13:06:43;5.85;;;2.60;;
30307;SDS011;17114;52.314;8.910;2023-04-24T13:09:10;5.05;;;3.72;;
30307;SDS011;17114;52.314;8.910;2023-04-24T13:11:37;7.97;;;4.07;;
30307;SDS011;17114;52.314;8.910;2023-04-24T13:14:04;7.95;;;4.07;;
30307;SDS011;17114;52.314;8.910;2023-04-24T13:16:31;6.50;;;4.68;;
30307;SDS011;17114;52.314;8.910;2023-04-24T13:18:59;8.23;;;4.90;;
30307;SDS011;17114;52.314;8.910;2023-04-24T13:21:26;7.20;;;4.20;;
30307;SDS011;17114;52.314;8.910;2023-04-24T13:23:53;8.35;;;4.50;;
30307;SDS011;17114;52.314;8.910;2023-04-24T13:26:20;6.70;;;4.97;;
30307;SDS011;17114;52.314;8.910;2023-04-24T13:28:47;7.75;;;5.22;;
30307;SDS011;17114;52.314;8.910;2023-04-24T13:31:15;7.75;;;5.28;;
30307;SDS011;17114;52.314;8.910;2023-04-24T13:33:42;8.27;;;5.70;;
30307;SDS011;17114;52.314;8.910;2023-04-24T13:36:09;8.52;;;5.40;;
30307;SDS011;17114;52.314;8.910;2023-04-24T13:38:36;8.40;;;5.25;;
30307;SDS011;17114;52.314;8.910;2023-04-24T13:41:03;6.80;;;4.90;;
30307;SDS011;17114;52.314;8.910;2023-04-24T13:43:30;9.98;;;5.28;;
30307;SDS011;17114;52.314;8.910;2023-04-24T13:45:57;8.45;;;5.15;;
30307;SDS011;17114;52.314;8.910;2023-04-24T13:48:25;7.57;;;4.93;;
30307;SDS011;17114;52.314;8.910;2023-04-24T13:50:52;7.60;;;5.50;;
30307;SDS011;17114;52.314;8.910;2023-04-24T13:53:19;8.88;;;5.40;;
30307;SDS011;17114;52.314;8.910;2023-04-24T13:55:46;10.82;;;5.75;;
30307;SDS011;17114;52.314;8.910;2023-04-24T13:58:13;10.50;;;5.63;;
30307;SDS011;17114;52.314;8.910;2023-04-24T14:00:41;11.18;;;5.22;;
30307;SDS011;17114;52.314;8.910;2023-04-24T14:03:08;10.85;;;5.32;;
30307;SDS011;17114;52.314;8.910;2023-04-24T14:05:35;10.18;;;5.68;;
30307;SDS011;17114;52.314;8.910;2023-04-24T14:08:04;10.15;;;5.03;;
30307;SDS011;17114;52.314;8.910;2023-04-24T14:10:32;10.55;;;5.32;;
30307;SDS011;17114;52.314;8.910;2023-04-24T14:12:59;14.02;;;4.85;;
30307;SDS011;17114;52.314;8.910;2023-04-24T14:15:26;11.30;;;5.22;;
30307;SDS011;17114;52.314;8.910;2023-04-24T14:17:53;15.38;;;5.38;;
30307;SDS011;17114;52.314;8.910;2023-04-24T14:20:20;11.60;;;5.60;;
30307;SDS011;17114;52.314;8.910;2023-04-24T14:22:47;15.35;;;5.93;;
30307;SDS011;17114;52.314;8.910;2023-04-24T14:25:14;11.65;;;6.00;;
30307;SDS011;17114;52.314;8.910;2023-04-24T14:27:41;13.85;;;5.55;;
30307;SDS011;17114;52.314;8.910;2023-04-24T14:30:08;14.52;;;6.50;;
30307;SDS011;17114;52.314;8.910;2023-04-24T14:32:35;12.07;;;5.30;;
30307;SDS011;17114;52.314;8.910;2023-04-24T14:35:04;14.88;;;5.65;;
30307;SDS011;17114;52.314;8.910;2023-04-24T14:37:32;12.18;;;6.05;;
30307;SDS011;17114;52.314;8.910;2023-04-24T14:39:59;17.08;;;5.78;;
30307;SDS011;17114;52.314;8.910;2023-04-24T14:42:31;17.02;;;6.22;;
30307;SDS011;17114;52.314;8.910;2023-04-24T14:44:59;15.23;;;6.53;;
30307;SDS011;17114;52.314;8.910;2023-04-24T14:47:26;15.70;;;6.40;;
30307;SDS011;17114;52.314;8.910;2023-04-24T14:49:53;11.60;;;5.93;;
30307;SDS011;17114;52.314;8.910;2023-04-24T14:52:20;14.60;;;7.30;;
30307;SDS011;17114;52.314;8.910;2023-04-24T14:54:47;14.93;;;7.50;;
30307;SDS011;17114;52.314;8.910;2023-04-24T14:57:14;14.90;;;6.30;;
30307;SDS011;17114;52.314;8.910;2023-04-24T14:59:41;15.35;;;6.55;;
30307;SDS011;17114;52.314;8.910;2023-04-24T15:02:08;15.05;;;7.20;;
30307;SDS011;17114;52.314;8.910;2023-04-24T15:04:39;20.85;;;7.93;;